createdAt,value
2019-03-25T00:02:53.540Z,7.90
2019-03-25T00:07:59.857Z,7.90
2019-03-25T00:13:05.796Z,7.80
2019-03-25T00:18:11.530Z,7.90
2019-03-25T00:23:17.254Z,7.90
2019-03-25T00:28:23.005Z,7.70
2019-03-25T00:33:28.646Z,7.60
2019-03-25T00:38:34.418Z,7.60
2019-03-25T00:43:40.175Z,7.50
2019-03-25T00:48:45.952Z,7.50
2019-03-25T00:53:51.722Z,7.60
2019-03-25T00:58:57.152Z,7.40
2019-03-25T01:04:02.993Z,7.50
2019-03-25T01:09:08.717Z,7.30
2019-03-25T01:14:14.089Z,7.40
2019-03-25T01:19:19.955Z,7.50
2019-03-25T01:24:25.865Z,7.20
2019-03-25T01:29:31.993Z,7.20
2019-03-25T01:34:37.875Z,7.30
2019-03-25T01:39:44.041Z,7.20
2019-03-25T01:44:50.074Z,7.10
2019-03-25T01:49:55.481Z,7.20
2019-03-25T01:55:00.801Z,7.40
2019-03-25T02:00:06.598Z,7.40
2019-03-25T02:05:12.378Z,7.10
2019-03-25T02:10:18.273Z,7.40
2019-03-25T02:15:23.811Z,7.30
2019-03-25T02:20:29.564Z,7.40
2019-03-25T02:25:35.335Z,7.30
2019-03-25T02:30:41.128Z,7.30
2019-03-25T02:35:46.649Z,7.40
2019-03-25T02:40:52.438Z,7.30
2019-03-25T02:45:57.938Z,7.30
2019-03-25T02:51:03.563Z,7.20
2019-03-25T02:56:08.894Z,7.40
2019-03-25T03:01:14.315Z,7.30
2019-03-25T03:06:19.648Z,7.30
2019-03-25T03:11:25.087Z,7.30
2019-03-25T03:16:30.444Z,7.40
2019-03-25T03:21:36.181Z,7.20
2019-03-25T03:26:41.621Z,7.20
2019-03-25T03:31:47.103Z,7.30
2019-03-25T03:36:53.119Z,7.00
2019-03-25T03:41:59.090Z,6.80
2019-03-25T03:47:04.577Z,7.20
2019-03-25T03:52:10.370Z,7.00
2019-03-25T03:57:16.637Z,7.00
2019-03-25T04:02:22.146Z,7.10
2019-03-25T04:07:27.936Z,6.90
2019-03-25T04:12:33.441Z,7.00
2019-03-25T04:17:39.470Z,7.00
2019-03-25T04:22:45.242Z,7.00
2019-03-25T04:27:51.725Z,6.90
2019-03-25T04:32:57.517Z,6.80
2019-03-25T04:38:03.022Z,7.00
2019-03-25T04:43:09.242Z,6.90
2019-03-25T04:48:15.105Z,7.00
2019-03-25T04:53:20.872Z,6.90
2019-03-25T04:58:27.254Z,7.00
2019-03-25T05:03:32.676Z,6.90
2019-03-25T05:08:38.285Z,6.90
2019-03-25T05:13:43.950Z,6.80
2019-03-25T05:18:50.225Z,6.80
2019-03-25T05:23:55.671Z,6.60
2019-03-25T05:29:01.641Z,6.60
2019-03-25T05:34:07.313Z,6.50
2019-03-25T05:39:13.296Z,6.60
2019-03-25T05:44:18.551Z,6.50
2019-03-25T05:49:24.318Z,6.40
2019-03-25T05:54:30.101Z,6.50
2019-03-25T05:59:36.028Z,6.60
2019-03-25T06:04:41.738Z,6.50
2019-03-25T06:09:47.057Z,6.40
2019-03-25T06:14:53.015Z,6.70
2019-03-25T06:19:58.944Z,6.60
2019-03-25T06:25:05.014Z,6.80
2019-03-25T06:30:11.553Z,6.70
2019-03-25T06:35:17.379Z,6.60
2019-03-25T06:40:23.110Z,6.70
2019-03-25T06:45:28.590Z,6.60
2019-03-25T06:50:34.987Z,6.70
2019-03-25T06:55:40.315Z,6.80
2019-03-25T07:00:46.221Z,6.90
2019-03-25T07:05:52.672Z,7.00
2019-03-25T07:10:58.208Z,7.00
2019-03-25T07:16:04.115Z,6.80
2019-03-25T07:21:10.209Z,7.00
2019-03-25T07:26:15.989Z,7.10
2019-03-25T07:31:21.537Z,7.10
2019-03-25T07:36:27.214Z,7.10
2019-03-25T07:41:32.550Z,7.30
2019-03-25T07:46:38.228Z,7.40
2019-03-25T07:51:43.648Z,7.40
2019-03-25T07:56:49.034Z,7.40
2019-03-25T08:01:54.857Z,7.20
2019-03-25T08:07:00.436Z,7.30
2019-03-25T08:12:06.505Z,7.10
2019-03-25T08:17:12.749Z,7.20
2019-03-25T08:22:18.417Z,7.30
2019-03-25T08:27:24.102Z,7.30
2019-03-25T08:32:30.309Z,7.50
2019-03-25T08:37:36.790Z,7.50
2019-03-25T08:42:42.740Z,7.50
2019-03-25T08:47:48.574Z,7.50
2019-03-25T08:52:54.254Z,8.10
2019-03-25T08:58:11.450Z,7.90
2019-03-25T09:03:08.036Z,7.90
2019-03-25T09:08:13.685Z,8.00
2019-03-25T09:13:19.133Z,8.10
2019-03-25T09:18:25.041Z,8.10
2019-03-25T09:23:30.845Z,8.30
2019-03-25T09:28:37.036Z,8.20
2019-03-25T09:33:43.009Z,8.20
2019-03-25T09:38:48.828Z,8.10
2019-03-25T09:43:54.596Z,7.50
2019-03-25T09:49:03.477Z,7.70
2019-03-25T09:54:08.913Z,7.80
2019-03-25T09:59:14.626Z,7.90
2019-03-25T10:04:20.262Z,7.60
2019-03-25T10:09:25.795Z,7.80
2019-03-25T10:14:31.234Z,8.00
2019-03-25T10:19:37.074Z,8.30
2019-03-25T10:24:42.436Z,8.60
2019-03-25T10:29:48.190Z,8.80
2019-03-25T10:34:53.906Z,9.10
2019-03-25T10:39:59.605Z,9.30
2019-03-25T10:45:05.462Z,9.30
2019-03-25T10:50:12.141Z,9.20
2019-03-25T10:55:17.574Z,9.20
2019-03-25T11:00:24.047Z,9.40
2019-03-25T11:05:30.022Z,9.30
2019-03-25T11:10:35.853Z,9.50
2019-03-25T11:15:41.585Z,9.60
2019-03-25T11:20:47.203Z,9.70
2019-03-25T11:25:52.988Z,9.50
2019-03-25T11:31:01.901Z,9.20
2019-03-25T11:36:07.833Z,7.90
2019-03-25T11:41:13.346Z,7.90
2019-03-25T11:46:18.822Z,8.20
2019-03-25T11:51:24.601Z,8.80
2019-03-25T11:56:30.401Z,9.20
2019-03-25T12:01:35.817Z,9.70
2019-03-25T12:06:41.401Z,10.20
2019-03-25T12:11:47.616Z,10.50
2019-03-25T12:16:53.344Z,9.60
2019-03-25T12:21:59.125Z,9.50
2019-03-25T12:27:04.566Z,8.80
2019-03-25T12:32:10.542Z,8.90
2019-03-25T12:37:17.106Z,9.20
2019-03-25T12:42:22.701Z,9.60
2019-03-25T12:47:28.149Z,9.70
2019-03-25T12:52:33.848Z,9.60
2019-03-25T12:57:39.468Z,9.40
2019-03-25T13:02:45.022Z,9.60
2019-03-25T13:07:50.572Z,9.50
2019-03-25T13:12:56.001Z,9.50
2019-03-25T13:18:01.786Z,9.10
2019-03-25T13:23:07.832Z,7.90
2019-03-25T13:28:13.254Z,7.90
2019-03-25T13:33:18.733Z,8.30
2019-03-25T13:38:24.345Z,8.60
2019-03-25T13:43:29.894Z,9.10
2019-03-25T13:48:35.464Z,9.20
2019-03-25T13:53:41.179Z,9.80
2019-03-25T13:58:46.673Z,9.90
2019-03-25T14:03:52.380Z,10.00
2019-03-25T14:08:58.136Z,9.70
2019-03-25T14:14:03.649Z,9.90
2019-03-25T14:19:09.080Z,9.80
2019-03-25T14:24:14.509Z,9.70
2019-03-25T14:29:19.896Z,9.90
2019-03-25T14:34:26.079Z,9.80
2019-03-25T14:39:32.166Z,9.90
2019-03-25T14:44:37.849Z,9.80
2019-03-25T14:49:43.384Z,10.00
2019-03-25T14:54:48.767Z,9.70
2019-03-25T14:59:54.184Z,9.60
2019-03-25T15:04:59.868Z,9.80
2019-03-25T15:10:06.111Z,9.80
2019-03-25T15:15:12.558Z,9.70
2019-03-25T15:20:18.084Z,9.80
2019-03-25T15:25:23.729Z,9.60
2019-03-25T15:30:35.987Z,9.40
2019-03-25T15:35:37.084Z,9.00
2019-03-25T15:40:42.510Z,8.90
2019-03-25T15:45:48.886Z,8.70
2019-03-25T15:50:54.497Z,8.80
2019-03-25T15:56:00.176Z,8.60
2019-03-25T16:01:05.861Z,9.10
2019-03-25T16:06:12.366Z,9.10
2019-03-25T16:11:18.187Z,8.90
2019-03-25T16:16:24.281Z,8.90
2019-03-25T16:21:30.273Z,8.70
2019-03-25T16:26:35.991Z,8.40
2019-03-25T16:31:41.938Z,8.40
2019-03-25T16:36:47.746Z,8.50
2019-03-25T16:41:53.373Z,8.50
2019-03-25T16:46:59.480Z,8.80
2019-03-25T16:52:05.161Z,8.60
2019-03-25T16:57:10.810Z,8.70
2019-03-25T17:02:16.273Z,8.70
2019-03-25T17:07:21.697Z,8.60
2019-03-25T17:12:27.133Z,8.70
2019-03-25T17:17:32.644Z,8.60
2019-03-25T17:22:38.178Z,8.70
2019-03-25T17:27:43.702Z,8.60
2019-03-25T17:32:49.055Z,8.70
2019-03-25T17:37:54.489Z,8.60
2019-03-25T17:43:00.390Z,8.60
2019-03-25T17:48:06.070Z,8.50
2019-03-25T17:53:11.751Z,8.50
2019-03-25T17:58:17.191Z,8.50
2019-03-25T18:03:22.942Z,8.50
2019-03-25T18:08:28.660Z,8.40
2019-03-25T18:13:34.178Z,8.30
2019-03-25T18:18:40.251Z,8.30
2019-03-25T18:23:46.217Z,8.20
2019-03-25T18:28:51.694Z,8.20
2019-03-25T18:33:57.201Z,8.10
2019-03-25T18:39:03.342Z,8.10
2019-03-25T18:44:09.053Z,8.00
2019-03-25T18:49:15.000Z,8.10
2019-03-25T18:54:20.820Z,8.10
2019-03-25T18:59:26.403Z,8.10
2019-03-25T19:04:32.463Z,8.00
2019-03-25T19:09:38.446Z,8.00
2019-03-25T19:14:44.191Z,7.80
2019-03-25T19:19:49.617Z,7.70
2019-03-25T19:24:55.740Z,7.70
2019-03-25T19:30:01.605Z,7.70
2019-03-25T19:35:07.389Z,7.60
2019-03-25T19:40:12.975Z,7.60
2019-03-25T19:45:18.992Z,7.60
2019-03-25T19:50:24.842Z,7.50
2019-03-25T19:55:30.397Z,7.50
2019-03-25T20:00:37.780Z,7.40
2019-03-25T20:05:43.480Z,7.40
2019-03-25T20:10:49.084Z,7.40
2019-03-25T20:15:54.932Z,7.40
2019-03-25T20:21:00.455Z,7.50
2019-03-25T20:26:07.248Z,7.40
2019-03-25T20:31:13.072Z,7.50
2019-03-25T20:36:19.225Z,7.40
2019-03-25T20:41:25.247Z,7.40
2019-03-25T20:46:30.945Z,7.40
2019-03-25T20:51:36.640Z,7.40
2019-03-25T20:56:43.461Z,7.40
2019-03-25T21:01:49.258Z,7.40
2019-03-25T21:12:03.427Z,7.40
2019-03-25T21:17:09.025Z,7.40
2019-03-25T21:22:14.864Z,7.30
2019-03-25T21:27:20.384Z,7.30
2019-03-25T21:32:26.232Z,7.30
2019-03-25T21:37:32.179Z,7.30
2019-03-25T21:42:38.208Z,7.30
2019-03-25T21:47:43.939Z,7.30
2019-03-25T21:52:50.125Z,7.10
2019-03-25T21:57:55.976Z,7.10
2019-03-25T22:03:11.383Z,7.10
2019-03-25T22:08:08.999Z,7.20
2019-03-25T22:13:15.408Z,7.10
2019-03-25T22:18:20.856Z,6.90
2019-03-25T22:23:26.392Z,7.00
2019-03-25T22:28:32.324Z,6.80
2019-03-25T22:33:38.521Z,6.90
2019-03-25T22:38:44.596Z,7.10
2019-03-25T22:43:50.006Z,6.90
2019-03-25T22:48:55.502Z,6.80
2019-03-25T22:54:01.391Z,6.70
2019-03-25T22:59:07.121Z,6.70
2019-03-25T23:04:13.323Z,6.80
2019-03-25T23:14:24.329Z,6.70
2019-03-25T23:19:30.098Z,6.60
2019-03-25T23:24:35.792Z,6.60
2019-03-25T23:29:41.561Z,6.60
2019-03-25T23:34:47.658Z,6.60
2019-03-25T23:39:53.522Z,6.60
2019-03-25T23:45:05.804Z,6.60
2019-03-25T23:50:11.619Z,6.60
2019-03-25T23:55:17.041Z,6.60
